Airport ID:KVUF
Update Time (UTC):24/10/2021 09:16
Wind Speed (Knots):9
Wind Direction (Magnetic):220
Temperature (°C):22
Dew Point (°C):15
Humidity (%):63
Altimeter (inHg):29.75
Density Altitude (Feet):3500
Visibility:10+
Clouds (Hundreds of feet):CLR
Present Weather:
METAR:METAR KVUF 240915Z AUTO 22010G16KT 10SM CLR 22/15 A2975 RMK A01

The data displayed is for advisory purposes only and is not to be used for flight planning or operations.